sensor_id;sensor_type;location;lat;lon;timestamp;temperature;humidity
10296;DHT22;5193;51.032;6.356;2022-07-23T00:02:16;16.90;99.90
10296;DHT22;5193;51.032;6.356;2022-07-23T00:04:42;16.90;99.90
10296;DHT22;5193;51.032;6.356;2022-07-23T00:07:08;16.90;99.90
10296;DHT22;5193;51.032;6.356;2022-07-23T00:09:33;16.90;99.90
10296;DHT22;5193;51.032;6.356;2022-07-23T00:11:59;16.90;99.90
10296;DHT22;5193;51.032;6.356;2022-07-23T00:14:25;16.90;99.90
10296;DHT22;5193;51.032;6.356;2022-07-23T00:16:50;16.90;99.90
10296;DHT22;5193;51.032;6.356;2022-07-23T00:19:16;16.80;99.90
10296;DHT22;5193;51.032;6.356;2022-07-23T00:21:41;16.90;99.90
10296;DHT22;5193;51.032;6.356;2022-07-23T00:24:07;16.80;99.90
10296;DHT22;5193;51.032;6.356;2022-07-23T00:26:33;16.90;99.90
10296;DHT22;5193;51.032;6.356;2022-07-23T00:28:58;16.90;99.90
10296;DHT22;5193;51.032;6.356;2022-07-23T00:31:24;16.80;99.90
10296;DHT22;5193;51.032;6.356;2022-07-23T00:33:50;16.90;99.90
10296;DHT22;5193;51.032;6.356;2022-07-23T00:36:15;16.80;99.90
10296;DHT22;5193;51.032;6.356;2022-07-23T00:38:41;16.80;99.90
10296;DHT22;5193;51.032;6.356;2022-07-23T00:41:06;16.90;99.90
10296;DHT22;5193;51.032;6.356;2022-07-23T00:43:32;16.80;99.90
10296;DHT22;5193;51.032;6.356;2022-07-23T00:45:57;16.80;99.90
10296;DHT22;5193;51.032;6.356;2022-07-23T00:48:23;16.80;99.90
10296;DHT22;5193;51.032;6.356;2022-07-23T00:50:49;16.80;99.90
10296;DHT22;5193;51.032;6.356;2022-07-23T00:53:15;16.80;99.90
10296;DHT22;5193;51.032;6.356;2022-07-23T00:55:41;16.70;99.90
10296;DHT22;5193;51.032;6.356;2022-07-23T00:58:07;16.70;99.90
10296;DHT22;5193;51.032;6.356;2022-07-23T01:00:33;16.70;99.90
10296;DHT22;5193;51.032;6.356;2022-07-23T01:02:59;16.60;99.90
10296;DHT22;5193;51.032;6.356;2022-07-23T01:05:25;16.60;99.90
10296;DHT22;5193;51.032;6.356;2022-07-23T01:07:51;16.60;99.90
10296;DHT22;5193;51.032;6.356;2022-07-23T01:10:17;16.50;99.90
10296;DHT22;5193;51.032;6.356;2022-07-23T01:15:24;16.40;99.90
10296;DHT22;5193;51.032;6.356;2022-07-23T01:17:50;16.40;99.90
10296;DHT22;5193;51.032;6.356;2022-07-23T01:20:16;16.40;99.90
10296;DHT22;5193;51.032;6.356;2022-07-23T01:22:42;16.30;99.90
10296;DHT22;5193;51.032;6.356;2022-07-23T01:25:08;16.30;99.90
10296;DHT22;5193;51.032;6.356;2022-07-23T01:27:34;16.30;99.90
10296;DHT22;5193;51.032;6.356;2022-07-23T01:30:00;16.20;99.90
10296;DHT22;5193;51.032;6.356;2022-07-23T01:32:26;16.20;99.90
10296;DHT22;5193;51.032;6.356;2022-07-23T01:34:52;16.10;99.90
10296;DHT22;5193;51.032;6.356;2022-07-23T01:37:17;16.10;99.90
10296;DHT22;5193;51.032;6.356;2022-07-23T01:39:43;16.10;99.90
10296;DHT22;5193;51.032;6.356;2022-07-23T01:42:08;16.00;99.90
10296;DHT22;5193;51.032;6.356;2022-07-23T01:44:34;15.90;99.90
10296;DHT22;5193;51.032;6.356;2022-07-23T01:47:00;15.90;99.90
10296;DHT22;5193;51.032;6.356;2022-07-23T01:49:25;15.90;99.90
10296;DHT22;5193;51.032;6.356;2022-07-23T01:51:51;15.90;99.90
10296;DHT22;5193;51.032;6.356;2022-07-23T01:54:30;15.80;99.90
10296;DHT22;5193;51.032;6.356;2022-07-23T01:56:56;15.80;99.90
10296;DHT22;5193;51.032;6.356;2022-07-23T01:59:22;15.70;99.90
10296;DHT22;5193;51.032;6.356;2022-07-23T02:01:48;15.70;99.90
10296;DHT22;5193;51.032;6.356;2022-07-23T02:04:22;15.70;99.90
10296;DHT22;5193;51.032;6.356;2022-07-23T02:06:48;15.70;99.90
10296;DHT22;5193;51.032;6.356;2022-07-23T02:09:15;15.60;99.90
10296;DHT22;5193;51.032;6.356;2022-07-23T02:11:41;15.60;99.90
10296;DHT22;5193;51.032;6.356;2022-07-23T02:14:06;15.50;99.90
10296;DHT22;5193;51.032;6.356;2022-07-23T02:16:32;15.50;99.90
10296;DHT22;5193;51.032;6.356;2022-07-23T02:18:58;15.50;99.90
10296;DHT22;5193;51.032;6.356;2022-07-23T02:21:23;15.40;99.90
10296;DHT22;5193;51.032;6.356;2022-07-23T02:23:49;15.40;99.90
10296;DHT22;5193;51.032;6.356;2022-07-23T02:26:15;15.40;99.90
10296;DHT22;5193;51.032;6.356;2022-07-23T02:28:40;15.30;99.90
10296;DHT22;5193;51.032;6.356;2022-07-23T02:31:06;15.40;99.90
10296;DHT22;5193;51.032;6.356;2022-07-23T02:33:32;15.20;99.90
10296;DHT22;5193;51.032;6.356;2022-07-23T02:35:58;15.30;99.90
10296;DHT22;5193;51.032;6.356;2022-07-23T02:38:24;15.20;99.90
10296;DHT22;5193;51.032;6.356;2022-07-23T02:40:49;15.20;99.90
10296;DHT22;5193;51.032;6.356;2022-07-23T02:43:15;15.20;99.90
10296;DHT22;5193;51.032;6.356;2022-07-23T02:45:40;15.10;99.90
10296;DHT22;5193;51.032;6.356;2022-07-23T02:48:06;15.10;99.90
10296;DHT22;5193;51.032;6.356;2022-07-23T02:50:32;15.00;99.90
10296;DHT22;5193;51.032;6.356;2022-07-23T02:52:57;15.00;99.90
10296;DHT22;5193;51.032;6.356;2022-07-23T02:55:23;14.90;99.90
10296;DHT22;5193;51.032;6.356;2022-07-23T02:57:49;14.90;99.90
10296;DHT22;5193;51.032;6.356;2022-07-23T03:00:15;14.80;99.90
10296;DHT22;5193;51.032;6.356;2022-07-23T03:02:40;14.80;99.90
10296;DHT22;5193;51.032;6.356;2022-07-23T03:05:06;14.70;99.90
10296;DHT22;5193;51.032;6.356;2022-07-23T03:07:32;14.70;99.90
10296;DHT22;5193;51.032;6.356;2022-07-23T03:09:57;14.60;99.90
10296;DHT22;5193;51.032;6.356;2022-07-23T03:12:23;14.60;99.90
10296;DHT22;5193;51.032;6.356;2022-07-23T03:14:48;14.60;99.90
10296;DHT22;5193;51.032;6.356;2022-07-23T03:17:14;14.60;99.90
10296;DHT22;5193;51.032;6.356;2022-07-23T03:19:39;14.50;99.90
10296;DHT22;5193;51.032;6.356;2022-07-23T03:22:06;14.50;99.90
10296;DHT22;5193;51.032;6.356;2022-07-23T03:24:32;14.50;99.90
10296;DHT22;5193;51.032;6.356;2022-07-23T03:27:17;14.50;99.90
10296;DHT22;5193;51.032;6.356;2022-07-23T03:29:42;14.40;99.90
10296;DHT22;5193;51.032;6.356;2022-07-23T03:32:08;14.40;99.90
10296;DHT22;5193;51.032;6.356;2022-07-23T03:34:34;14.30;99.90
10296;DHT22;5193;51.032;6.356;2022-07-23T03:36:59;14.30;99.90
10296;DHT22;5193;51.032;6.356;2022-07-23T03:39:25;14.30;99.90
10296;DHT22;5193;51.032;6.356;2022-07-23T03:41:51;14.20;99.90
10296;DHT22;5193;51.032;6.356;2022-07-23T03:44:16;14.30;99.90
10296;DHT22;5193;51.032;6.356;2022-07-23T03:46:42;14.30;99.90
10296;DHT22;5193;51.032;6.356;2022-07-23T03:49:07;14.20;99.90
10296;DHT22;5193;51.032;6.356;2022-07-23T03:51:33;14.10;99.90
10296;DHT22;5193;51.032;6.356;2022-07-23T03:53:58;14.10;99.90
10296;DHT22;5193;51.032;6.356;2022-07-23T03:56:24;14.10;99.90
10296;DHT22;5193;51.032;6.356;2022-07-23T03:58:50;14.10;99.90
10296;DHT22;5193;51.032;6.356;2022-07-23T04:01:15;14.10;99.90
10296;DHT22;5193;51.032;6.356;2022-07-23T04:03:41;14.00;99.90
10296;DHT22;5193;51.032;6.356;2022-07-23T04:06:07;14.00;99.90
10296;DHT22;5193;51.032;6.356;2022-07-23T04:08:32;14.00;99.90
10296;DHT22;5193;51.032;6.356;2022-07-23T04:10:58;14.00;99.90
10296;DHT22;5193;51.032;6.356;2022-07-23T04:13:24;14.00;99.90
10296;DHT22;5193;51.032;6.356;2022-07-23T04:15:50;14.00;99.90
10296;DHT22;5193;51.032;6.356;2022-07-23T04:18:16;14.00;99.90
10296;DHT22;5193;51.032;6.356;2022-07-23T04:20:46;14.00;99.90
10296;DHT22;5193;51.032;6.356;2022-07-23T04:23:12;14.00;99.90
10296;DHT22;5193;51.032;6.356;2022-07-23T04:25:38;14.00;99.90
10296;DHT22;5193;51.032;6.356;2022-07-23T04:28:03;14.00;99.90
10296;DHT22;5193;51.032;6.356;2022-07-23T04:30:29;14.00;99.90
10296;DHT22;5193;51.032;6.356;2022-07-23T04:32:55;14.00;99.90
10296;DHT22;5193;51.032;6.356;2022-07-23T04:35:20;14.00;99.90
10296;DHT22;5193;51.032;6.356;2022-07-23T04:37:46;13.90;99.90
10296;DHT22;5193;51.032;6.356;2022-07-23T04:40:12;13.90;99.90
10296;DHT22;5193;51.032;6.356;2022-07-23T04:42:38;13.90;99.90
10296;DHT22;5193;51.032;6.356;2022-07-23T04:45:04;14.00;99.90
10296;DHT22;5193;51.032;6.356;2022-07-23T04:47:30;14.00;99.90
10296;DHT22;5193;51.032;6.356;2022-07-23T04:49:56;14.00;99.90
10296;DHT22;5193;51.032;6.356;2022-07-23T04:52:22;14.10;99.90
10296;DHT22;5193;51.032;6.356;2022-07-23T04:54:48;14.10;99.90
10296;DHT22;5193;51.032;6.356;2022-07-23T04:57:13;14.10;99.90
10296;DHT22;5193;51.032;6.356;2022-07-23T04:59:39;14.20;99.90
10296;DHT22;5193;51.032;6.356;2022-07-23T05:02:04;14.20;99.90
10296;DHT22;5193;51.032;6.356;2022-07-23T05:04:30;14.30;99.90
10296;DHT22;5193;51.032;6.356;2022-07-23T05:06:57;14.40;99.90
10296;DHT22;5193;51.032;6.356;2022-07-23T05:09:22;14.40;99.90
10296;DHT22;5193;51.032;6.356;2022-07-23T05:11:48;14.50;99.90
10296;DHT22;5193;51.032;6.356;2022-07-23T05:14:13;14.50;99.90
10296;DHT22;5193;51.032;6.356;2022-07-23T05:16:39;14.50;99.90
10296;DHT22;5193;51.032;6.356;2022-07-23T05:19:05;14.60;99.90
10296;DHT22;5193;51.032;6.356;2022-07-23T05:21:31;14.70;99.90
10296;DHT22;5193;51.032;6.356;2022-07-23T05:23:57;14.80;99.90
10296;DHT22;5193;51.032;6.356;2022-07-23T05:26:22;14.80;99.90
10296;DHT22;5193;51.032;6.356;2022-07-23T05:28:48;14.90;99.90
10296;DHT22;5193;51.032;6.356;2022-07-23T05:31:13;15.00;99.90
10296;DHT22;5193;51.032;6.356;2022-07-23T05:33:39;15.10;99.90
10296;DHT22;5193;51.032;6.356;2022-07-23T05:36:05;15.20;99.90
10296;DHT22;5193;51.032;6.356;2022-07-23T05:38:32;15.20;99.90
10296;DHT22;5193;51.032;6.356;2022-07-23T05:40:58;15.20;99.90
10296;DHT22;5193;51.032;6.356;2022-07-23T05:43:23;15.30;99.90
10296;DHT22;5193;51.032;6.356;2022-07-23T05:45:49;15.40;99.90
10296;DHT22;5193;51.032;6.356;2022-07-23T05:48:15;15.40;99.90
10296;DHT22;5193;51.032;6.356;2022-07-23T05:50:40;15.50;99.90
10296;DHT22;5193;51.032;6.356;2022-07-23T05:53:06;15.50;99.90
10296;DHT22;5193;51.032;6.356;2022-07-23T05:55:31;15.60;99.90
10296;DHT22;5193;51.032;6.356;2022-07-23T05:57:58;15.60;99.90
10296;DHT22;5193;51.032;6.356;2022-07-23T06:00:23;15.70;99.90
10296;DHT22;5193;51.032;6.356;2022-07-23T06:02:49;15.80;99.90
10296;DHT22;5193;51.032;6.356;2022-07-23T06:05:15;15.90;99.90
10296;DHT22;5193;51.032;6.356;2022-07-23T06:07:40;15.90;99.90
10296;DHT22;5193;51.032;6.356;2022-07-23T06:10:06;15.90;99.90
10296;DHT22;5193;51.032;6.356;2022-07-23T06:12:32;16.10;99.90
10296;DHT22;5193;51.032;6.356;2022-07-23T06:14:57;16.10;99.90
10296;DHT22;5193;51.032;6.356;2022-07-23T06:17:23;16.20;99.90
10296;DHT22;5193;51.032;6.356;2022-07-23T06:19:49;16.20;99.90
10296;DHT22;5193;51.032;6.356;2022-07-23T06:22:14;16.30;99.90
10296;DHT22;5193;51.032;6.356;2022-07-23T06:24:40;16.40;99.90
10296;DHT22;5193;51.032;6.356;2022-07-23T06:27:05;16.40;99.90
10296;DHT22;5193;51.032;6.356;2022-07-23T06:29:31;16.60;99.90
10296;DHT22;5193;51.032;6.356;2022-07-23T06:31:57;16.60;99.90
10296;DHT22;5193;51.032;6.356;2022-07-23T06:34:22;16.70;99.90
10296;DHT22;5193;51.032;6.356;2022-07-23T06:36:48;16.90;99.90
10296;DHT22;5193;51.032;6.356;2022-07-23T06:39:13;17.00;99.90
10296;DHT22;5193;51.032;6.356;2022-07-23T06:41:39;17.00;99.90
10296;DHT22;5193;51.032;6.356;2022-07-23T06:44:05;17.10;99.90
10296;DHT22;5193;51.032;6.356;2022-07-23T06:46:30;17.10;99.90
10296;DHT22;5193;51.032;6.356;2022-07-23T06:48:56;17.20;99.90
10296;DHT22;5193;51.032;6.356;2022-07-23T06:51:22;17.30;99.90
10296;DHT22;5193;51.032;6.356;2022-07-23T06:53:47;17.40;99.90
10296;DHT22;5193;51.032;6.356;2022-07-23T06:56:13;17.40;99.90
10296;DHT22;5193;51.032;6.356;2022-07-23T06:58:38;17.60;99.90
10296;DHT22;5193;51.032;6.356;2022-07-23T07:01:04;17.80;99.90
10296;DHT22;5193;51.032;6.356;2022-07-23T07:03:30;18.00;99.90
10296;DHT22;5193;51.032;6.356;2022-07-23T07:05:55;18.20;99.90
10296;DHT22;5193;51.032;6.356;2022-07-23T07:08:23;18.40;99.90
10296;DHT22;5193;51.032;6.356;2022-07-23T07:10:48;18.40;99.90
10296;DHT22;5193;51.032;6.356;2022-07-23T07:13:14;18.30;99.90
10296;DHT22;5193;51.032;6.356;2022-07-23T07:15:40;18.30;99.90
10296;DHT22;5193;51.032;6.356;2022-07-23T07:18:05;18.40;99.90
10296;DHT22;5193;51.032;6.356;2022-07-23T07:20:31;18.60;99.90
10296;DHT22;5193;51.032;6.356;2022-07-23T07:22:56;18.70;99.90
10296;DHT22;5193;51.032;6.356;2022-07-23T07:25:22;18.90;99.90
10296;DHT22;5193;51.032;6.356;2022-07-23T07:27:47;19.10;99.90
10296;DHT22;5193;51.032;6.356;2022-07-23T07:30:13;19.10;99.90
10296;DHT22;5193;51.032;6.356;2022-07-23T07:32:40;19.10;99.90
10296;DHT22;5193;51.032;6.356;2022-07-23T07:35:06;19.20;99.90
10296;DHT22;5193;51.032;6.356;2022-07-23T07:37:32;19.50;99.90
10296;DHT22;5193;51.032;6.356;2022-07-23T07:39:58;19.60;99.90
10296;DHT22;5193;51.032;6.356;2022-07-23T07:42:23;19.70;99.90
10296;DHT22;5193;51.032;6.356;2022-07-23T07:44:49;19.70;99.90
10296;DHT22;5193;51.032;6.356;2022-07-23T07:47:14;19.70;99.90
10296;DHT22;5193;51.032;6.356;2022-07-23T07:49:41;19.80;99.90
10296;DHT22;5193;51.032;6.356;2022-07-23T07:52:07;19.80;99.90
10296;DHT22;5193;51.032;6.356;2022-07-23T07:54:33;19.80;99.90
10296;DHT22;5193;51.032;6.356;2022-07-23T07:56:59;19.80;99.90
10296;DHT22;5193;51.032;6.356;2022-07-23T07:59:25;19.80;99.90
10296;DHT22;5193;51.032;6.356;2022-07-23T08:01:51;20.00;99.90
10296;DHT22;5193;51.032;6.356;2022-07-23T08:04:17;20.10;99.90
10296;DHT22;5193;51.032;6.356;2022-07-23T08:06:43;20.20;99.90
10296;DHT22;5193;51.032;6.356;2022-07-23T08:09:08;20.20;99.90
10296;DHT22;5193;51.032;6.356;2022-07-23T08:11:34;20.20;99.90
10296;DHT22;5193;51.032;6.356;2022-07-23T08:14:00;20.30;99.90
10296;DHT22;5193;51.032;6.356;2022-07-23T08:16:26;20.30;99.90
10296;DHT22;5193;51.032;6.356;2022-07-23T08:18:51;20.30;99.90
10296;DHT22;5193;51.032;6.356;2022-07-23T08:21:17;20.40;99.90
10296;DHT22;5193;51.032;6.356;2022-07-23T08:23:43;20.50;99.90
10296;DHT22;5193;51.032;6.356;2022-07-23T08:26:09;20.50;99.90
10296;DHT22;5193;51.032;6.356;2022-07-23T08:28:35;20.60;99.90
10296;DHT22;5193;51.032;6.356;2022-07-23T08:31:01;20.70;99.90
10296;DHT22;5193;51.032;6.356;2022-07-23T08:33:27;20.70;99.90
10296;DHT22;5193;51.032;6.356;2022-07-23T08:35:52;20.80;99.90
10296;DHT22;5193;51.032;6.356;2022-07-23T08:38:21;20.90;99.90
10296;DHT22;5193;51.032;6.356;2022-07-23T08:40:53;21.10;99.90
10296;DHT22;5193;51.032;6.356;2022-07-23T08:43:21;21.30;99.90
10296;DHT22;5193;51.032;6.356;2022-07-23T08:45:49;21.50;99.90
10296;DHT22;5193;51.032;6.356;2022-07-23T08:48:17;21.50;99.90
10296;DHT22;5193;51.032;6.356;2022-07-23T08:50:47;21.60;99.90
10296;DHT22;5193;51.032;6.356;2022-07-23T08:53:14;21.80;99.90
10296;DHT22;5193;51.032;6.356;2022-07-23T08:55:40;21.90;99.90
10296;DHT22;5193;51.032;6.356;2022-07-23T08:58:08;21.90;99.90
10296;DHT22;5193;51.032;6.356;2022-07-23T09:00:34;21.90;99.90
10296;DHT22;5193;51.032;6.356;2022-07-23T09:03:00;21.80;99.90
10296;DHT22;5193;51.032;6.356;2022-07-23T09:05:25;21.90;99.90
10296;DHT22;5193;51.032;6.356;2022-07-23T09:10:47;22.30;99.90
10296;DHT22;5193;51.032;6.356;2022-07-23T09:15:54;22.10;99.90
10296;DHT22;5193;51.032;6.356;2022-07-23T09:18:53;22.10;99.90
10296;DHT22;5193;51.032;6.356;2022-07-23T09:21:22;22.10;99.90
10296;DHT22;5193;51.032;6.356;2022-07-23T09:24:08;22.40;99.90
10296;DHT22;5193;51.032;6.356;2022-07-23T09:26:44;22.40;99.90
10296;DHT22;5193;51.032;6.356;2022-07-23T09:29:18;22.30;99.90
10296;DHT22;5193;51.032;6.356;2022-07-23T09:34:32;22.50;99.90
10296;DHT22;5193;51.032;6.356;2022-07-23T09:37:12;22.50;99.90
10296;DHT22;5193;51.032;6.356;2022-07-23T09:39:39;22.40;99.90
10296;DHT22;5193;51.032;6.356;2022-07-23T09:42:18;22.60;99.90
10296;DHT22;5193;51.032;6.356;2022-07-23T09:44:49;22.90;99.90
10296;DHT22;5193;51.032;6.356;2022-07-23T09:47:15;23.20;99.90
10296;DHT22;5193;51.032;6.356;2022-07-23T09:50:00;23.30;99.90
10296;DHT22;5193;51.032;6.356;2022-07-23T09:52:43;22.90;99.90
10296;DHT22;5193;51.032;6.356;2022-07-23T09:55:09;22.80;99.90
10296;DHT22;5193;51.032;6.356;2022-07-23T09:57:34;22.90;99.90
10296;DHT22;5193;51.032;6.356;2022-07-23T10:00:03;23.10;99.90
10296;DHT22;5193;51.032;6.356;2022-07-23T10:02:32;23.10;99.90
10296;DHT22;5193;51.032;6.356;2022-07-23T10:04:58;23.10;99.90
10296;DHT22;5193;51.032;6.356;2022-07-23T10:07:25;23.00;99.90
10296;DHT22;5193;51.032;6.356;2022-07-23T10:09:52;23.00;99.90
10296;DHT22;5193;51.032;6.356;2022-07-23T10:12:19;23.10;99.90
10296;DHT22;5193;51.032;6.356;2022-07-23T10:14:45;23.40;99.90
10296;DHT22;5193;51.032;6.356;2022-07-23T10:17:11;23.60;99.90
10296;DHT22;5193;51.032;6.356;2022-07-23T10:19:38;23.90;99.90
10296;DHT22;5193;51.032;6.356;2022-07-23T10:22:12;24.30;99.90
10296;DHT22;5193;51.032;6.356;2022-07-23T10:24:58;24.50;99.90
10296;DHT22;5193;51.032;6.356;2022-07-23T10:33:27;24.40;99.90
10296;DHT22;5193;51.032;6.356;2022-07-23T10:38:52;24.80;99.90
10296;DHT22;5193;51.032;6.356;2022-07-23T10:41:35;24.80;99.90
10296;DHT22;5193;51.032;6.356;2022-07-23T10:44:12;24.50;99.90
10296;DHT22;5193;51.032;6.356;2022-07-23T10:47:00;24.50;99.90
10296;DHT22;5193;51.032;6.356;2022-07-23T10:49:35;24.50;99.90
10296;DHT22;5193;51.032;6.356;2022-07-23T10:52:21;24.40;99.90
10296;DHT22;5193;51.032;6.356;2022-07-23T10:57:19;24.70;99.90
10296;DHT22;5193;51.032;6.356;2022-07-23T11:02:29;25.20;99.90
10296;DHT22;5193;51.032;6.356;2022-07-23T11:05:00;25.40;99.90
10296;DHT22;5193;51.032;6.356;2022-07-23T11:07:26;25.30;99.90
10296;DHT22;5193;51.032;6.356;2022-07-23T11:09:51;25.30;99.90
10296;DHT22;5193;51.032;6.356;2022-07-23T11:17:28;25.20;99.90
10296;DHT22;5193;51.032;6.356;2022-07-23T11:25:02;25.50;99.90
10296;DHT22;5193;51.032;6.356;2022-07-23T11:27:44;25.40;99.90
10296;DHT22;5193;51.032;6.356;2022-07-23T11:32:53;25.80;99.90
10296;DHT22;5193;51.032;6.356;2022-07-23T11:35:27;26.10;99.90
10296;DHT22;5193;51.032;6.356;2022-07-23T11:37:54;26.30;99.90
10296;DHT22;5193;51.032;6.356;2022-07-23T11:40:27;26.20;99.90
10296;DHT22;5193;51.032;6.356;2022-07-23T11:43:02;26.10;99.90
10296;DHT22;5193;51.032;6.356;2022-07-23T11:45:43;26.10;99.90
10296;DHT22;5193;51.032;6.356;2022-07-23T11:48:28;26.30;99.90
10296;DHT22;5193;51.032;6.356;2022-07-23T11:50:55;26.30;99.90
10296;DHT22;5193;51.032;6.356;2022-07-23T11:53:33;26.40;99.90
10296;DHT22;5193;51.032;6.356;2022-07-23T11:56:09;26.50;99.90
10296;DHT22;5193;51.032;6.356;2022-07-23T11:58:35;26.10;99.90
10296;DHT22;5193;51.032;6.356;2022-07-23T12:01:01;25.90;99.90
10296;DHT22;5193;51.032;6.356;2022-07-23T12:03:27;25.90;99.90
10296;DHT22;5193;51.032;6.356;2022-07-23T12:05:57;26.00;99.90
10296;DHT22;5193;51.032;6.356;2022-07-23T12:08:23;26.00;99.90
10296;DHT22;5193;51.032;6.356;2022-07-23T12:10:49;26.20;99.90
10296;DHT22;5193;51.032;6.356;2022-07-23T12:13:17;26.60;99.90
10296;DHT22;5193;51.032;6.356;2022-07-23T12:15:47;26.90;99.90
10296;DHT22;5193;51.032;6.356;2022-07-23T12:18:19;27.30;99.90
10296;DHT22;5193;51.032;6.356;2022-07-23T12:20:50;27.50;99.90
10296;DHT22;5193;51.032;6.356;2022-07-23T12:23:18;27.60;99.90
10296;DHT22;5193;51.032;6.356;2022-07-23T12:25:45;27.40;99.90
10296;DHT22;5193;51.032;6.356;2022-07-23T12:28:17;27.20;99.90
10296;DHT22;5193;51.032;6.356;2022-07-23T12:30:53;26.90;99.90
10296;DHT22;5193;51.032;6.356;2022-07-23T12:33:26;26.70;99.90
10296;DHT22;5193;51.032;6.356;2022-07-23T12:35:54;26.60;99.90
10296;DHT22;5193;51.032;6.356;2022-07-23T12:38:22;26.60;99.90
10296;DHT22;5193;51.032;6.356;2022-07-23T12:40:53;26.60;99.90
10296;DHT22;5193;51.032;6.356;2022-07-23T12:43:29;26.60;99.90
10296;DHT22;5193;51.032;6.356;2022-07-23T12:48:39;26.30;99.90
10296;DHT22;5193;51.032;6.356;2022-07-23T12:51:21;26.40;99.90
10296;DHT22;5193;51.032;6.356;2022-07-23T12:53:49;26.40;99.90
10296;DHT22;5193;51.032;6.356;2022-07-23T12:56:18;26.50;99.90
10296;DHT22;5193;51.032;6.356;2022-07-23T13:06:38;26.80;99.90
10296;DHT22;5193;51.032;6.356;2022-07-23T13:09:06;26.90;99.90
10296;DHT22;5193;51.032;6.356;2022-07-23T13:11:32;27.00;99.90
10296;DHT22;5193;51.032;6.356;2022-07-23T13:13:59;27.30;99.90
10296;DHT22;5193;51.032;6.356;2022-07-23T13:16:26;27.40;99.90
10296;DHT22;5193;51.032;6.356;2022-07-23T13:18:52;27.50;99.90
10296;DHT22;5193;51.032;6.356;2022-07-23T13:21:18;27.60;99.90
10296;DHT22;5193;51.032;6.356;2022-07-23T13:23:43;27.50;99.90
10296;DHT22;5193;51.032;6.356;2022-07-23T13:26:09;27.20;99.90
10296;DHT22;5193;51.032;6.356;2022-07-23T13:28:35;27.40;99.90
10296;DHT22;5193;51.032;6.356;2022-07-23T13:31:00;27.70;99.90
10296;DHT22;5193;51.032;6.356;2022-07-23T13:33:26;28.00;99.90
10296;DHT22;5193;51.032;6.356;2022-07-23T13:35:52;28.10;99.90
10296;DHT22;5193;51.032;6.356;2022-07-23T13:38:20;28.20;99.90
10296;DHT22;5193;51.032;6.356;2022-07-23T13:40:49;28.30;99.90
10296;DHT22;5193;51.032;6.356;2022-07-23T13:43:17;27.90;99.70
10296;DHT22;5193;51.032;6.356;2022-07-23T13:45:43;27.50;99.90
10296;DHT22;5193;51.032;6.356;2022-07-23T13:48:10;27.40;99.90
10296;DHT22;5193;51.032;6.356;2022-07-23T13:50:37;27.50;99.90
10296;DHT22;5193;51.032;6.356;2022-07-23T13:53:04;27.60;99.90
10296;DHT22;5193;51.032;6.356;2022-07-23T13:55:31;27.60;99.90
10296;DHT22;5193;51.032;6.356;2022-07-23T13:57:57;27.60;99.90
10296;DHT22;5193;51.032;6.356;2022-07-23T14:00:24;27.50;99.90
10296;DHT22;5193;51.032;6.356;2022-07-23T14:02:49;27.50;99.90
10296;DHT22;5193;51.032;6.356;2022-07-23T14:05:15;27.80;99.90
10296;DHT22;5193;51.032;6.356;2022-07-23T14:07:41;28.10;99.90
10296;DHT22;5193;51.032;6.356;2022-07-23T14:10:08;28.30;99.90
10296;DHT22;5193;51.032;6.356;2022-07-23T14:12:34;28.60;99.90
10296;DHT22;5193;51.032;6.356;2022-07-23T14:15:00;28.60;99.90
10296;DHT22;5193;51.032;6.356;2022-07-23T14:34:37;28.20;99.90
10296;DHT22;5193;51.032;6.356;2022-07-23T14:37:03;28.50;99.90
10296;DHT22;5193;51.032;6.356;2022-07-23T14:39:28;28.60;99.90
10296;DHT22;5193;51.032;6.356;2022-07-23T14:41:54;28.70;99.90
10296;DHT22;5193;51.032;6.356;2022-07-23T14:44:20;29.00;99.90
10296;DHT22;5193;51.032;6.356;2022-07-23T14:46:45;28.80;99.90
10296;DHT22;5193;51.032;6.356;2022-07-23T14:49:11;28.80;99.90
10296;DHT22;5193;51.032;6.356;2022-07-23T14:51:36;29.00;99.90
10296;DHT22;5193;51.032;6.356;2022-07-23T14:54:03;29.30;99.90
10296;DHT22;5193;51.032;6.356;2022-07-23T14:56:30;29.30;99.90
10296;DHT22;5193;51.032;6.356;2022-07-23T14:58:55;29.40;99.90
10296;DHT22;5193;51.032;6.356;2022-07-23T15:01:22;29.30;99.90
10296;DHT22;5193;51.032;6.356;2022-07-23T15:03:48;29.40;99.90
10296;DHT22;5193;51.032;6.356;2022-07-23T15:06:15;29.40;99.90
10296;DHT22;5193;51.032;6.356;2022-07-23T15:08:40;29.50;99.90
10296;DHT22;5193;51.032;6.356;2022-07-23T15:11:06;29.50;99.90
10296;DHT22;5193;51.032;6.356;2022-07-23T15:13:34;29.30;97.10
10296;DHT22;5193;51.032;6.356;2022-07-23T15:16:00;28.80;96.30
10296;DHT22;5193;51.032;6.356;2022-07-23T15:18:26;28.60;97.30
10296;DHT22;5193;51.032;6.356;2022-07-23T15:20:51;28.40;98.90
10296;DHT22;5193;51.032;6.356;2022-07-23T15:23:17;28.50;99.70
10296;DHT22;5193;51.032;6.356;2022-07-23T15:25:42;28.70;99.90
10296;DHT22;5193;51.032;6.356;2022-07-23T15:28:08;28.90;99.90
10296;DHT22;5193;51.032;6.356;2022-07-23T15:30:33;29.00;99.90
10296;DHT22;5193;51.032;6.356;2022-07-23T15:32:59;29.20;98.90
10296;DHT22;5193;51.032;6.356;2022-07-23T15:35:25;28.90;97.10
10296;DHT22;5193;51.032;6.356;2022-07-23T15:37:50;28.70;98.70
10296;DHT22;5193;51.032;6.356;2022-07-23T15:40:16;28.70;99.90
10296;DHT22;5193;51.032;6.356;2022-07-23T15:42:41;28.80;99.60
10296;DHT22;5193;51.032;6.356;2022-07-23T15:45:08;29.00;99.70
10296;DHT22;5193;51.032;6.356;2022-07-23T15:47:34;28.90;97.70
10296;DHT22;5193;51.032;6.356;2022-07-23T15:49:59;28.90;99.50
10296;DHT22;5193;51.032;6.356;2022-07-23T15:52:25;29.00;98.10
10296;DHT22;5193;51.032;6.356;2022-07-23T15:54:50;28.90;97.70
10296;DHT22;5193;51.032;6.356;2022-07-23T15:57:16;28.60;96.10
10296;DHT22;5193;51.032;6.356;2022-07-23T15:59:42;28.60;99.10
10296;DHT22;5193;51.032;6.356;2022-07-23T16:02:07;28.80;97.70
10296;DHT22;5193;51.032;6.356;2022-07-23T16:04:33;28.70;96.80
10296;DHT22;5193;51.032;6.356;2022-07-23T16:06:59;28.60;98.90
10296;DHT22;5193;51.032;6.356;2022-07-23T16:09:25;28.40;96.50
10296;DHT22;5193;51.032;6.356;2022-07-23T16:11:51;28.20;97.70
10296;DHT22;5193;51.032;6.356;2022-07-23T16:14:16;28.00;97.50
10296;DHT22;5193;51.032;6.356;2022-07-23T16:16:42;27.90;96.90
10296;DHT22;5193;51.032;6.356;2022-07-23T16:19:08;27.70;96.10
10296;DHT22;5193;51.032;6.356;2022-07-23T16:21:35;27.50;96.70
10296;DHT22;5193;51.032;6.356;2022-07-23T16:24:01;27.50;97.30
10296;DHT22;5193;51.032;6.356;2022-07-23T16:26:26;27.40;97.30
10296;DHT22;5193;51.032;6.356;2022-07-23T16:28:52;27.40;96.80
10296;DHT22;5193;51.032;6.356;2022-07-23T16:31:18;27.60;97.90
10296;DHT22;5193;51.032;6.356;2022-07-23T16:33:43;27.60;97.20
10296;DHT22;5193;51.032;6.356;2022-07-23T16:36:09;27.50;97.60
10296;DHT22;5193;51.032;6.356;2022-07-23T16:38:39;27.50;96.30
10296;DHT22;5193;51.032;6.356;2022-07-23T16:41:05;27.50;97.20
10296;DHT22;5193;51.032;6.356;2022-07-23T16:43:32;27.30;97.10
10296;DHT22;5193;51.032;6.356;2022-07-23T16:46:00;27.40;98.20
10296;DHT22;5193;51.032;6.356;2022-07-23T16:48:26;27.40;97.50
10296;DHT22;5193;51.032;6.356;2022-07-23T16:50:52;27.40;97.80